Seymour Johnson Air Force Base Goldsboro US
ICAO: KGSB
IATA: GSB
Category: Large
Scheduled Services: No

Elevation: 109 ft
TransAlt. 18000 ft.

Airport Communications:
APP:119.7
ATIS:31.762
CLNC DEL:128.025
DEP:119.7
GND:138.1
ACC SOF:37.61
PMSV METRO:32.392
916TH COMD POST:31.1
4FW COMD POST:31.1
PTD:37.22
TWR:126.25

KGSB Zoom In..

Runways:

(A) RW 08 length 11760 ft width 300 ft
ILS 109.30 / hdg 81

(B) RW 26 length 11760 ft width 300 ft
ILS 109.90 / hdg 261

Location; KGSB
Day. 21 / Time. 19.56 Zulu
* Altimeter: 30.09
* Temperature: 27° c. 80.6°f.
* Wind from: 230° Speed 05 kn.
Dewpoint: 21° c.
Visibility: 10 Statute Miles.
Clouds: Few 2000 ft.

KGSB 211956Z AUTO 23005KT 10SM FEW200 27/21 A3009 RMK AO2 SLPNO T02740207 $


Wind From 230°
Speed 05 kn.

 
 
jpsmedia.com for Web Design SOUNDCLOUD worldairports.se 2018   terms of use